Time;durP1;ratioP1;P1;durP2;ratioP2;P2;SDS_P1;SDS_P2;PMS_P1;PMS_P2;Temp;Humidity;BMP_temperature;BMP_pressure;BME280_temperature;BME280_humidity;BME280_pressure;Samples;Min_cycle;Max_cycle;Signal;HPM_P1;HPM_P2
2023/11/03 00:00:52;;;;;;;5.90;3.40;;;;;;;11.15;77.96;94518.65;108702;1271;22934;-78
2023/11/03 00:03:42;;;;;;;4.80;3.30;;;;;;;11.06;78.28;94507.62;108727;1265;22539;-78
2023/11/03 00:06:14;;;;;;;4.30;2.90;;;;;;;11.04;78.44;94503.75;108722;1271;25998;-78
2023/11/03 00:08:46;;;;;;;6.60;3.30;;;;;;;11.02;78.54;94491.59;108787;1271;22565;-78
2023/11/03 00:11:17;;;;;;;5.90;3.40;;;;;;;11.00;78.94;94488.59;108757;1264;22524;-78
2023/11/03 00:13:48;;;;;;;5.40;3.00;;;;;;;10.97;79.50;94483.27;108753;1268;22575;-78
2023/11/03 00:16:18;;;;;;;4.20;3.10;;;;;;;10.90;79.99;94480.54;108769;1271;26718;-78
2023/11/03 00:18:50;;;;;;;9.50;6.40;;;;;;;10.83;80.17;94483.19;108718;1268;26199;-78
2023/11/03 00:21:21;;;;;;;7.20;5.00;;;;;;;10.80;80.22;94476.65;108736;1271;25415;-78
2023/11/03 00:23:52;;;;;;;7.30;3.60;;;;;;;10.80;80.08;94483.24;108769;1271;22522;-78
2023/11/03 00:26:25;;;;;;;4.50;3.60;;;;;;;10.95;80.00;94480.98;108766;1266;25415;-77
2023/11/03 00:28:56;;;;;;;6.60;3.90;;;;;;;11.16;79.80;94476.63;108752;1265;24385;-78
2023/11/03 00:31:28;;;;;;;7.10;4.90;;;;;;;11.18;79.65;94477.60;108803;1268;24217;-78
2023/11/03 00:33:58;;;;;;;6.10;4.30;;;;;;;11.14;79.63;94476.73;108770;1264;22539;-78
2023/11/03 00:36:29;;;;;;;8.10;5.30;;;;;;;11.10;79.63;94476.29;108737;1265;23442;-78
2023/11/03 00:39:00;;;;;;;4.80;4.10;;;;;;;11.08;79.65;94471.69;108740;1271;22542;-78
2023/11/03 00:41:32;;;;;;;6.60;3.90;;;;;;;11.05;79.82;94463.18;108746;1271;25230;-78
2023/11/03 00:44:03;;;;;;;7.20;4.00;;;;;;;11.01;79.99;94462.02;108722;1271;24028;-78
2023/11/03 00:46:33;;;;;;;4.40;3.40;;;;;;;10.96;80.02;94448.23;108775;1268;24054;-78
2023/11/03 00:49:05;;;;;;;4.40;3.30;;;;;;;10.93;80.04;94445.02;108698;1271;23444;-78
2023/11/03 00:51:36;;;;;;;4.30;3.30;;;;;;;10.91;80.06;94443.91;108731;1271;22529;-78
2023/11/03 00:54:08;;;;;;;7.80;3.30;;;;;;;10.93;80.12;94441.91;108737;1271;22548;-78
2023/11/03 00:56:40;;;;;;;7.90;3.60;;;;;;;10.95;80.08;94438.20;108725;1271;22515;-78
2023/11/03 00:59:11;;;;;;;6.50;3.90;;;;;;;10.97;80.16;94446.06;108756;1264;22566;-78
2023/11/03 01:01:47;;;;;;;4.50;3.10;;;;;;;11.03;80.06;94440.45;108699;1271;22697;-78
2023/11/03 01:04:18;;;;;;;4.10;2.80;;;;;;;11.19;79.86;94436.65;108712;1271;26444;-78
2023/11/03 01:06:49;;;;;;;3.30;2.50;;;;;;;11.43;79.59;94441.91;108665;1271;23362;-78
2023/11/03 01:09:22;;;;;;;2.90;2.20;;;;;;;11.55;78.98;94433.70;108747;1265;24901;-78
2023/11/03 01:11:52;;;;;;;5.00;2.70;;;;;;;11.68;78.58;94431.40;108765;1271;22517;-78
2023/11/03 01:14:25;;;;;;;3.80;2.50;;;;;;;11.81;78.20;94425.66;108759;1264;22541;-78
2023/11/03 01:16:57;;;;;;;3.50;2.20;;;;;;;11.92;77.55;94412.74;108701;1271;22536;-78
2023/11/03 01:19:30;;;;;;;4.40;2.50;;;;;;;12.13;76.97;94405.86;108742;1271;24234;-78
2023/11/03 01:22:03;;;;;;;3.50;2.30;;;;;;;12.21;76.36;94406.19;108696;1271;22575;-78
2023/11/03 01:24:38;;;;;;;3.30;2.20;;;;;;;12.28;75.94;94398.04;108727;1271;23736;-78
2023/11/03 01:27:09;;;;;;;3.10;2.00;;;;;;;12.37;75.54;94398.46;108743;1268;22511;-78
2023/11/03 01:29:40;;;;;;;2.70;1.90;;;;;;;12.42;74.96;94403.22;108744;1271;22576;-78
2023/11/03 01:32:13;;;;;;;3.60;2.00;;;;;;;12.42;74.65;94398.06;108715;1271;22511;-78
2023/11/03 01:34:44;;;;;;;3.60;2.40;;;;;;;12.44;74.35;94393.87;108758;1271;22543;-78
2023/11/03 01:37:15;;;;;;;3.90;2.30;;;;;;;12.47;74.27;94388.15;108722;1266;22517;-78
2023/11/03 01:39:46;;;;;;;3.00;1.90;;;;;;;12.51;73.90;94393.78;108717;1265;22535;-78
2023/11/03 01:42:17;;;;;;;4.20;2.30;;;;;;;12.56;73.50;94389.34;108759;1268;22539;-78
2023/11/03 01:44:48;;;;;;;3.80;2.30;;;;;;;12.53;73.37;94386.91;108693;1271;22511;-78
2023/11/03 01:47:19;;;;;;;2.20;2.00;;;;;;;12.45;73.08;94384.46;108730;1266;22595;-78
2023/11/03 01:49:50;;;;;;;4.30;2.20;;;;;;;12.43;73.05;94380.55;108710;1271;24129;-78
2023/11/03 01:52:21;;;;;;;3.70;2.10;;;;;;;12.43;73.09;94379.64;108768;1266;22528;-78
2023/11/03 01:54:52;;;;;;;3.00;2.10;;;;;;;12.44;72.98;94381.11;108752;1271;22516;-78
2023/11/03 01:57:24;;;;;;;3.90;2.30;;;;;;;12.47;72.72;94378.74;108737;1268;22518;-78
2023/11/03 01:59:56;;;;;;;3.20;2.10;;;;;;;12.47;72.67;94383.21;108714;1271;25387;-78
2023/11/03 02:02:27;;;;;;;3.60;2.10;;;;;;;12.49;72.45;94387.73;108756;1271;22528;-78
2023/11/03 02:04:58;;;;;;;3.90;2.20;;;;;;;12.49;72.42;94378.63;108782;1266;24702;-78
2023/11/03 02:07:29;;;;;;;3.00;2.10;;;;;;;12.48;72.17;94381.27;108689;1271;26435;-78
2023/11/03 02:10:00;;;;;;;3.20;1.70;;;;;;;12.48;72.07;94381.80;108761;1268;24240;-78
2023/11/03 02:12:31;;;;;;;2.60;1.90;;;;;;;12.52;72.11;94368.20;108727;1271;22575;-78
2023/11/03 02:15:01;;;;;;;2.90;2.10;;;;;;;12.49;71.97;94365.65;108763;1271;22504;-78
2023/11/03 02:17:33;;;;;;;3.80;2.30;;;;;;;12.41;72.21;94350.60;108725;1271;22630;-78
2023/11/03 02:20:06;;;;;;;3.10;2.20;;;;;;;12.31;72.31;94348.69;108742;1266;22644;-78
2023/11/03 02:22:38;;;;;;;2.20;1.90;;;;;;;12.22;72.49;94346.19;108763;1264;22552;-78
2023/11/03 02:25:11;;;;;;;4.60;1.90;;;;;;;12.19;72.54;94334.20;108762;1265;22536;-77
2023/11/03 02:27:41;;;;;;;2.90;2.00;;;;;;;12.14;72.67;94327.11;108885;1271;22525;-78
2023/11/03 02:30:15;;;;;;;3.60;2.30;;;;;;;12.09;72.79;94332.12;108760;1271;24231;-78
2023/11/03 02:32:46;;;;;;;4.00;2.20;;;;;;;12.03;73.01;94332.60;108745;1271;22529;-78
2023/11/03 02:35:16;;;;;;;2.70;1.90;;;;;;;11.99;73.05;94329.84;108742;1268;22528;-77
2023/11/03 02:37:47;;;;;;;2.80;1.90;;;;;;;12.06;73.10;94321.52;108736;1271;28033;-78
2023/11/03 02:40:18;;;;;;;7.00;1.90;;;;;;;12.15;72.93;94323.80;108739;1271;22942;-78
2023/11/03 02:42:49;;;;;;;2.60;1.90;;;;;;;12.10;73.12;94323.27;108728;1270;22521;-78
2023/11/03 02:45:20;;;;;;;3.20;2.10;;;;;;;12.10;73.04;94329.28;108685;1268;22521;-77
2023/11/03 02:47:51;;;;;;;3.00;2.00;;;;;;;12.12;72.91;94325.63;108699;1271;22512;-78
2023/11/03 02:50:22;;;;;;;3.40;2.10;;;;;;;12.09;73.09;94322.88;108763;1271;22524;-78
2023/11/03 02:52:54;;;;;;;3.80;2.20;;;;;;;12.02;73.43;94321.41;108728;1266;22516;-78
2023/11/03 02:55:25;;;;;;;7.70;2.30;;;;;;;11.93;73.52;94328.56;108718;1265;24448;-78
2023/11/03 02:57:56;;;;;;;2.60;1.60;;;;;;;12.04;73.47;94319.86;108743;1271;22537;-78
2023/11/03 03:00:28;;;;;;;2.90;2.10;;;;;;;12.16;73.33;94321.61;108740;1271;22512;-78
2023/11/03 03:02:59;;;;;;;1.90;1.60;;;;;;;12.17;73.23;94309.87;108748;1266;24228;-78
2023/11/03 03:05:30;;;;;;;2.60;2.00;;;;;;;12.16;73.12;94301.27;108740;1266;24627;-77
2023/11/03 03:08:03;;;;;;;2.60;2.10;;;;;;;12.13;73.14;94298.77;108748;1271;22526;-78
2023/11/03 03:10:34;;;;;;;5.30;2.50;;;;;;;12.11;73.22;94298.51;108754;1271;22517;-78
2023/11/03 03:13:07;;;;;;;4.00;2.10;;;;;;;12.12;73.19;94303.31;108768;1271;22525;-78
2023/11/03 03:15:38;;;;;;;3.00;1.60;;;;;;;12.14;73.19;94310.80;108731;1271;22544;-78
2023/11/03 03:18:08;;;;;;;1.90;1.60;;;;;;;12.16;73.22;94323.67;108736;1271;22543;-78
2023/11/03 03:20:39;;;;;;;2.10;1.70;;;;;;;12.18;73.02;94310.81;108734;1271;25335;-78
2023/11/03 03:23:10;;;;;;;3.30;1.80;;;;;;;12.18;73.12;94317.48;108663;1268;22542;-78
2023/11/03 03:25:41;;;;;;;1.70;1.20;;;;;;;12.16;73.10;94331.48;108689;1266;22531;-77
2023/11/03 03:28:12;;;;;;;2.90;1.50;;;;;;;12.18;73.19;94337.07;108768;1268;22576;-78
2023/11/03 03:30:43;;;;;;;2.00;1.70;;;;;;;12.16;72.98;94334.45;108721;1266;22755;-78
2023/11/03 03:33:14;;;;;;;2.50;1.50;;;;;;;12.15;73.11;94343.98;108730;1268;22517;-78
2023/11/03 03:35:45;;;;;;;3.40;1.80;;;;;;;12.29;72.67;94328.06;108810;1271;24216;-78
2023/11/03 03:38:16;;;;;;;1.90;1.60;;;;;;;12.51;71.82;94325.16;108788;1271;22542;-78
2023/11/03 03:40:46;;;;;;;1.80;1.60;;;;;;;12.64;71.20;94314.86;108716;1271;22520;-78
2023/11/03 03:43:17;;;;;;;2.30;1.70;;;;;;;12.68;71.12;94308.91;108683;1271;22532;-78
2023/11/03 03:45:48;;;;;;;1.70;1.50;;;;;;;12.68;71.04;94295.00;108739;1271;22658;-78
2023/11/03 03:48:19;;;;;;;2.00;1.30;;;;;;;12.64;70.89;94289.97;108749;1271;22580;-78
2023/11/03 03:50:49;;;;;;;1.90;1.50;;;;;;;12.64;70.83;94286.25;108735;1271;22605;-78
2023/11/03 03:53:20;;;;;;;1.90;1.50;;;;;;;12.63;70.84;94281.59;108751;1268;22539;-78
2023/11/03 03:55:51;;;;;;;1.60;1.40;;;;;;;12.62;70.69;94283.39;108709;1271;25419;-78
2023/11/03 03:58:25;;;;;;;4.30;2.20;;;;;;;12.71;70.52;94285.35;108715;1269;22514;-78
2023/11/03 04:00:56;;;;;;;3.50;1.90;;;;;;;12.76;69.99;94277.84;108755;1265;22515;-78
2023/11/03 04:03:27;;;;;;;2.00;1.50;;;;;;;12.80;69.57;94269.80;108736;1266;22550;-78
2023/11/03 04:05:58;;;;;;;3.00;1.90;;;;;;;12.81;69.54;94253.41;108697;1271;25932;-78
2023/11/03 04:08:28;;;;;;;3.40;2.40;;;;;;;12.80;69.47;94241.67;108755;1271;22521;-78
2023/11/03 04:11:00;;;;;;;3.40;1.70;;;;;;;12.73;69.68;94239.19;108712;1271;25418;-78
2023/11/03 04:13:31;;;;;;;2.30;1.80;;;;;;;12.65;69.86;94231.05;108748;1264;22530;-78
2023/11/03 04:16:03;;;;;;;2.70;1.70;;;;;;;12.63;69.96;94227.27;108718;1271;27411;-78
2023/11/03 04:18:39;;;;;;;3.70;2.00;;;;;;;12.56;70.05;94222.91;108808;1271;22518;-78
2023/11/03 04:21:10;;;;;;;6.60;2.10;;;;;;;12.48;70.08;94214.06;108744;1268;22521;-78
2023/11/03 04:23:41;;;;;;;3.20;1.60;;;;;;;12.42;70.23;94214.71;108725;1265;22543;-78
2023/11/03 04:26:12;;;;;;;3.50;1.70;;;;;;;12.47;70.29;94213.98;108718;1271;23680;-78
2023/11/03 04:28:43;;;;;;;2.10;1.40;;;;;;;12.53;70.15;94219.48;108727;1266;22585;-78
2023/11/03 04:31:14;;;;;;;2.80;1.30;;;;;;;12.68;69.33;94215.92;108747;1271;22655;-79
2023/11/03 04:33:45;;;;;;;3.10;1.80;;;;;;;12.83;68.84;94204.69;108767;1268;22544;-78
2023/11/03 04:36:16;;;;;;;2.40;1.70;;;;;;;12.88;68.56;94195.05;108731;1271;22533;-78
2023/11/03 04:38:47;;;;;;;2.70;1.40;;;;;;;12.89;68.12;94185.56;108715;1264;22520;-78
2023/11/03 04:41:18;;;;;;;3.20;1.60;;;;;;;12.98;67.34;94178.13;108727;1271;22534;-78
2023/11/03 04:43:49;;;;;;;2.00;1.50;;;;;;;13.04;67.19;94177.48;108690;1271;22529;-78
2023/11/03 04:46:20;;;;;;;2.80;1.60;;;;;;;13.04;67.19;94182.65;108686;1250;25260;-78
2023/11/03 04:48:52;;;;;;;3.20;1.90;;;;;;;12.99;67.16;94181.42;108757;1271;22513;-78
2023/11/03 04:51:23;;;;;;;2.40;1.60;;;;;;;12.87;67.25;94177.55;108789;1264;22538;-78
2023/11/03 04:53:55;;;;;;;2.60;1.80;;;;;;;12.72;67.63;94171.89;108733;1271;22607;-78
2023/11/03 04:56:25;;;;;;;1.70;1.60;;;;;;;12.58;67.82;94168.02;108714;1266;22523;-78
2023/11/03 04:58:56;;;;;;;3.10;1.80;;;;;;;12.50;68.11;94153.29;108792;1271;22524;-78
2023/11/03 05:01:28;;;;;;;4.50;2.00;;;;;;;12.41;68.41;94142.34;108687;1266;22533;-78
2023/11/03 05:03:59;;;;;;;2.40;1.80;;;;;;;12.30;68.79;94141.35;108749;1268;22517;-78
2023/11/03 05:06:31;;;;;;;4.50;1.80;;;;;;;12.18;69.14;94137.17;108721;1269;22528;-78
2023/11/03 05:09:02;;;;;;;2.60;1.80;;;;;;;12.08;69.52;94132.94;108752;1271;22543;-78
2023/11/03 05:11:33;;;;;;;2.60;1.90;;;;;;;11.96;69.79;94136.02;108741;1271;23543;-78
2023/11/03 05:14:05;;;;;;;2.90;1.80;;;;;;;11.87;70.02;94140.08;108715;1271;22520;-78
2023/11/03 05:16:36;;;;;;;4.40;2.10;;;;;;;11.77;70.33;94135.84;108715;1271;22543;-78
2023/11/03 05:19:06;;;;;;;3.70;2.50;;;;;;;11.71;70.60;94137.42;108711;1268;22561;-78
2023/11/03 05:21:37;;;;;;;4.10;2.00;;;;;;;11.62;70.96;94138.52;108721;1265;22522;-79
2023/11/03 05:24:10;;;;;;;2.20;1.70;;;;;;;11.55;71.18;94138.59;108740;1268;22527;-78
2023/11/03 05:26:41;;;;;;;2.40;1.70;;;;;;;11.49;71.51;94144.94;108786;1271;27429;-78
2023/11/03 05:29:14;;;;;;;3.80;2.10;;;;;;;11.44;71.56;94140.44;108692;1271;22544;-78
2023/11/03 05:31:44;;;;;;;3.80;2.10;;;;;;;11.35;71.76;94130.80;108773;1271;24189;-78
2023/11/03 05:34:15;;;;;;;3.70;1.90;;;;;;;11.29;72.02;94120.61;108726;1268;22518;-78
2023/11/03 05:36:47;;;;;;;2.70;2.20;;;;;;;11.29;72.27;94116.08;108720;1271;26605;-78
2023/11/03 05:39:20;;;;;;;4.00;2.20;;;;;;;11.25;72.31;94098.69;108708;1271;25410;-78
2023/11/03 05:41:51;;;;;;;6.80;2.80;;;;;;;11.24;72.56;94106.54;108715;1271;22531;-78
2023/11/03 05:44:22;;;;;;;2.20;1.60;;;;;;;11.16;72.67;94121.21;108704;1271;22528;-78
2023/11/03 05:46:53;;;;;;;2.30;1.40;;;;;;;11.26;73.22;94123.94;108720;1264;22520;-78
2023/11/03 05:49:24;;;;;;;2.30;1.40;;;;;;;11.76;73.39;94114.64;108759;1271;22637;-78
2023/11/03 05:51:55;;;;;;;2.10;1.00;;;;;;;12.29;72.15;94103.32;108745;1271;22521;-78
2023/11/03 05:54:26;;;;;;;2.00;1.00;;;;;;;12.86;69.90;94107.95;108749;1270;22658;-79
2023/11/03 05:56:57;;;;;;;2.20;1.20;;;;;;;13.27;68.79;94107.38;108767;1269;23119;-78
2023/11/03 05:59:29;;;;;;;2.40;1.40;;;;;;;13.31;68.41;94109.34;108744;1262;24262;-78
2023/11/03 06:02:00;;;;;;;2.10;1.30;;;;;;;13.33;68.02;94104.95;108740;1271;25252;-78
2023/11/03 06:04:31;;;;;;;2.40;1.20;;;;;;;13.38;67.58;94105.41;108762;1267;22522;-78
2023/11/03 06:07:06;;;;;;;2.30;1.20;;;;;;;13.32;67.43;94119.15;108683;1271;24200;-78
2023/11/03 06:09:37;;;;;;;1.90;1.10;;;;;;;13.21;67.63;94126.50;108740;1271;22518;-78
2023/11/03 06:12:11;;;;;;;2.30;1.30;;;;;;;13.18;67.59;94131.91;108771;1267;24260;-78
2023/11/03 06:14:42;;;;;;;3.70;1.40;;;;;;;13.10;67.66;94138.15;108739;1268;22508;-77
2023/11/03 06:17:13;;;;;;;1.70;1.30;;;;;;;13.01;67.90;94140.27;108693;1269;24408;-78
2023/11/03 06:19:43;;;;;;;1.30;1.20;;;;;;;12.90;68.05;94131.04;108594;1268;212857;-78
2023/11/03 06:22:15;;;;;;;1.90;1.40;;;;;;;12.82;68.08;94130.20;108699;1264;22662;-78
2023/11/03 06:24:46;;;;;;;1.60;0.80;;;;;;;12.89;67.36;94123.95;108711;1271;22954;-78
2023/11/03 06:27:17;;;;;;;1.40;0.80;;;;;;;13.26;66.80;94125.21;108702;1266;23276;-78
2023/11/03 06:29:48;;;;;;;2.60;1.10;;;;;;;13.52;64.97;94127.77;108746;1271;22524;-78
2023/11/03 06:32:19;;;;;;;1.40;1.00;;;;;;;13.68;64.50;94127.02;108659;1265;22554;-78
2023/11/03 06:34:50;;;;;;;2.90;1.00;;;;;;;13.71;64.55;94132.54;108771;1271;22535;-78
2023/11/03 06:37:21;;;;;;;3.30;1.20;;;;;;;13.68;63.98;94139.42;108746;1271;22644;-78
2023/11/03 06:39:53;;;;;;;1.10;0.70;;;;;;;13.67;63.92;94134.70;108733;1271;22518;-78
2023/11/03 06:42:25;;;;;;;2.30;1.10;;;;;;;13.63;64.32;94120.85;108667;1266;25193;-78
2023/11/03 06:44:56;;;;;;;2.80;0.90;;;;;;;13.58;64.71;94116.38;108709;1271;22525;-77
2023/11/03 06:47:28;;;;;;;1.60;1.10;;;;;;;13.54;64.68;94117.60;108717;1271;22683;-78
2023/11/03 06:49:59;;;;;;;1.70;1.20;;;;;;;13.63;64.54;94109.77;108751;1271;22544;-78
2023/11/03 06:52:30;;;;;;;1.50;1.00;;;;;;;13.71;64.39;94114.04;108689;1271;22564;-78
2023/11/03 06:55:01;;;;;;;0.90;0.70;;;;;;;13.75;64.38;94104.14;108702;1267;22577;-78
2023/11/03 06:57:32;;;;;;;2.10;0.70;;;;;;;13.79;64.43;94092.41;108774;1268;23936;-78
2023/11/03 07:00:03;;;;;;;1.60;0.70;;;;;;;13.87;64.23;94093.28;108704;1264;22520;-78
2023/11/03 07:02:34;;;;;;;1.40;0.60;;;;;;;14.08;64.11;94075.59;108726;1266;22725;-78
2023/11/03 07:05:06;;;;;;;0.50;0.50;;;;;;;14.28;63.89;94081.00;108744;1265;22533;-78
2023/11/03 07:07:38;;;;;;;2.00;0.60;;;;;;;14.48;63.50;94084.99;108754;1271;22521;-78
2023/11/03 07:10:11;;;;;;;0.90;0.40;;;;;;;14.64;63.14;94085.48;108729;1271;22547;-78
2023/11/03 07:12:42;;;;;;;0.40;0.30;;;;;;;14.86;61.75;94082.73;108816;1268;22528;-79
2023/11/03 07:15:14;;;;;;;1.20;0.50;;;;;;;15.13;61.08;94079.84;108634;1271;22563;-77
2023/11/03 07:17:44;;;;;;;0.50;0.30;;;;;;;15.24;61.07;94067.44;108725;1267;22527;-78
2023/11/03 07:20:16;;;;;;;1.00;0.50;;;;;;;15.24;60.97;94069.20;108712;1250;22540;-78
2023/11/03 07:22:47;;;;;;;0.60;0.30;;;;;;;15.24;60.75;94074.38;108733;1271;25239;-79
2023/11/03 07:25:19;;;;;;;0.40;0.40;;;;;;;15.29;60.11;94073.73;108693;1271;22544;-77
2023/11/03 07:27:50;;;;;;;1.10;0.60;;;;;;;15.27;60.85;94071.19;108705;1271;22568;-78
2023/11/03 07:30:22;;;;;;;2.40;0.60;;;;;;;15.18;61.22;94051.98;108740;1272;22510;-78
2023/11/03 07:32:52;;;;;;;1.10;0.50;;;;;;;15.09;61.43;94053.35;108725;1268;22534;-78
2023/11/03 07:35:23;;;;;;;0.60;0.40;;;;;;;15.04;61.30;94046.97;108718;1271;22630;-78
2023/11/03 07:37:54;;;;;;;0.80;0.60;;;;;;;15.03;60.94;94043.69;108779;1271;22542;-79
2023/11/03 07:40:26;;;;;;;1.80;0.80;;;;;;;15.06;61.05;94038.84;108752;1271;24318;-78
2023/11/03 07:42:57;;;;;;;0.50;0.50;;;;;;;15.05;61.41;94041.05;108758;1271;22685;-79
2023/11/03 07:45:28;;;;;;;1.40;0.90;;;;;;;15.03;61.37;94043.38;108762;1270;28562;-78
2023/11/03 07:47:59;;;;;;;2.00;0.90;;;;;;;15.00;61.34;94045.50;108738;1271;22522;-78
2023/11/03 07:50:30;;;;;;;2.40;0.90;;;;;;;14.96;61.45;94043.42;108747;1271;22512;-78
2023/11/03 07:53:03;;;;;;;1.30;1.00;;;;;;;14.91;61.51;94038.17;108757;1266;22535;-78
2023/11/03 07:55:36;;;;;;;2.30;1.00;;;;;;;14.97;61.62;94044.26;108682;1271;24417;-77
2023/11/03 07:58:09;;;;;;;1.10;1.00;;;;;;;14.97;61.95;94042.36;108732;1271;24215;-78
2023/11/03 08:00:40;;;;;;;1.50;0.90;;;;;;;14.92;62.07;94041.92;108777;1271;22530;-78
2023/11/03 08:03:12;;;;;;;1.40;0.90;;;;;;;14.86;62.31;94046.14;108744;1271;22516;-78
2023/11/03 08:05:44;;;;;;;1.10;0.80;;;;;;;14.79;62.28;94045.40;108739;1271;22526;-78
2023/11/03 08:08:15;;;;;;;1.00;0.80;;;;;;;14.77;62.64;94033.72;108687;1269;22519;-78
2023/11/03 08:10:46;;;;;;;1.60;0.80;;;;;;;14.80;62.83;94045.58;108684;1271;22525;-78
2023/11/03 08:13:17;;;;;;;1.30;0.70;;;;;;;14.85;62.86;94037.45;108736;1271;22655;-78
2023/11/03 08:15:49;;;;;;;1.60;1.00;;;;;;;14.89;62.95;94035.72;108717;1271;23696;-78
2023/11/03 08:18:20;;;;;;;1.40;0.90;;;;;;;14.86;63.02;94045.00;108745;1264;25379;-78
2023/11/03 08:20:52;;;;;;;3.80;0.90;;;;;;;14.77;62.76;94077.53;108746;1271;24215;-79
2023/11/03 08:23:24;;;;;;;2.70;1.40;;;;;;;14.62;62.54;94084.70;108756;1271;22571;-78
2023/11/03 08:25:57;;;;;;;2.30;1.40;;;;;;;14.50;62.88;94070.39;108739;1271;22527;-77
2023/11/03 08:28:29;;;;;;;2.10;1.40;;;;;;;14.41;63.34;94074.38;108744;1271;22517;-78
2023/11/03 08:31:01;;;;;;;2.10;1.30;;;;;;;14.35;63.43;94073.77;108727;1271;22533;-78
2023/11/03 08:33:33;;;;;;;1.60;1.30;;;;;;;14.30;63.80;94073.03;108733;1270;22645;-79
2023/11/03 08:36:07;;;;;;;2.20;1.40;;;;;;;14.20;63.98;94064.70;108742;1271;25453;-78
2023/11/03 08:38:39;;;;;;;1.80;1.10;;;;;;;14.17;64.30;94056.20;108790;1271;22591;-78
2023/11/03 08:41:14;;;;;;;2.10;1.60;;;;;;;14.09;64.52;94053.61;108738;1271;22545;-79
2023/11/03 08:43:49;;;;;;;3.10;1.50;;;;;;;14.05;64.79;94055.91;108793;1265;22537;-78
2023/11/03 08:46:21;;;;;;;3.20;1.60;;;;;;;14.03;65.05;94047.14;108765;1271;22534;-78
2023/11/03 08:48:55;;;;;;;2.10;1.40;;;;;;;13.97;65.18;94042.65;108751;1271;22567;-78
